sensor_id;sensor_type;location;lat;lon;timestamp;temperature;humidity
5960;DHT22;3006;50.956;7.002;2023-12-20T00:01:28;7.20;99.90
5960;DHT22;3006;50.956;7.002;2023-12-20T00:03:56;7.30;99.90
5960;DHT22;3006;50.956;7.002;2023-12-20T00:06:25;7.30;99.90
5960;DHT22;3006;50.956;7.002;2023-12-20T00:08:54;7.30;99.90
5960;DHT22;3006;50.956;7.002;2023-12-20T00:11:24;7.30;99.90
5960;DHT22;3006;50.956;7.002;2023-12-20T00:13:52;7.30;99.90
5960;DHT22;3006;50.956;7.002;2023-12-20T00:16:20;7.30;99.90
5960;DHT22;3006;50.956;7.002;2023-12-20T00:18:49;7.30;99.90
5960;DHT22;3006;50.956;7.002;2023-12-20T00:21:17;7.30;99.90
5960;DHT22;3006;50.956;7.002;2023-12-20T00:23:46;7.40;99.90
5960;DHT22;3006;50.956;7.002;2023-12-20T00:26:14;7.40;99.90
5960;DHT22;3006;50.956;7.002;2023-12-20T00:28:43;7.40;99.90
5960;DHT22;3006;50.956;7.002;2023-12-20T00:31:11;7.40;99.90
5960;DHT22;3006;50.956;7.002;2023-12-20T00:33:39;7.40;99.90
5960;DHT22;3006;50.956;7.002;2023-12-20T00:36:10;7.40;99.90
5960;DHT22;3006;50.956;7.002;2023-12-20T00:38:38;7.30;99.90
5960;DHT22;3006;50.956;7.002;2023-12-20T00:41:08;7.20;99.90
5960;DHT22;3006;50.956;7.002;2023-12-20T00:43:36;7.20;99.90
5960;DHT22;3006;50.956;7.002;2023-12-20T00:46:04;7.20;99.90
5960;DHT22;3006;50.956;7.002;2023-12-20T00:48:33;7.20;99.90
5960;DHT22;3006;50.956;7.002;2023-12-20T00:51:01;7.10;99.90
5960;DHT22;3006;50.956;7.002;2023-12-20T00:53:29;7.10;99.90
5960;DHT22;3006;50.956;7.002;2023-12-20T00:55:57;7.10;99.90
5960;DHT22;3006;50.956;7.002;2023-12-20T00:58:27;7.10;99.90
5960;DHT22;3006;50.956;7.002;2023-12-20T01:00:55;7.20;99.90
5960;DHT22;3006;50.956;7.002;2023-12-20T01:03:25;7.10;99.90
5960;DHT22;3006;50.956;7.002;2023-12-20T01:05:53;7.00;99.90
5960;DHT22;3006;50.956;7.002;2023-12-20T01:08:21;7.10;99.90
5960;DHT22;3006;50.956;7.002;2023-12-20T01:10:49;7.00;99.90
5960;DHT22;3006;50.956;7.002;2023-12-20T01:13:17;7.00;99.90
5960;DHT22;3006;50.956;7.002;2023-12-20T01:15:47;7.00;99.90
5960;DHT22;3006;50.956;7.002;2023-12-20T01:18:15;7.00;99.90
5960;DHT22;3006;50.956;7.002;2023-12-20T01:20:43;7.00;99.90
5960;DHT22;3006;50.956;7.002;2023-12-20T01:23:11;6.90;99.90
5960;DHT22;3006;50.956;7.002;2023-12-20T01:25:39;6.90;99.90
5960;DHT22;3006;50.956;7.002;2023-12-20T01:28:08;6.90;99.90
5960;DHT22;3006;50.956;7.002;2023-12-20T01:30:36;6.90;99.90
5960;DHT22;3006;50.956;7.002;2023-12-20T01:33:06;6.80;99.90
5960;DHT22;3006;50.956;7.002;2023-12-20T01:35:34;6.80;99.90
5960;DHT22;3006;50.956;7.002;2023-12-20T01:38:02;6.90;99.90
5960;DHT22;3006;50.956;7.002;2023-12-20T01:40:30;6.90;99.90
5960;DHT22;3006;50.956;7.002;2023-12-20T01:42:59;6.90;99.90
5960;DHT22;3006;50.956;7.002;2023-12-20T01:45:28;7.00;99.90
5960;DHT22;3006;50.956;7.002;2023-12-20T01:47:57;7.00;99.90
5960;DHT22;3006;50.956;7.002;2023-12-20T01:50:28;7.00;99.90
5960;DHT22;3006;50.956;7.002;2023-12-20T01:52:57;6.90;99.90
5960;DHT22;3006;50.956;7.002;2023-12-20T01:55:28;6.90;99.90
5960;DHT22;3006;50.956;7.002;2023-12-20T01:57:57;6.90;99.90
5960;DHT22;3006;50.956;7.002;2023-12-20T02:00:26;6.90;99.90
5960;DHT22;3006;50.956;7.002;2023-12-20T02:02:55;6.80;99.90
5960;DHT22;3006;50.956;7.002;2023-12-20T02:05:29;6.80;99.70
5960;DHT22;3006;50.956;7.002;2023-12-20T02:07:58;6.80;99.60
5960;DHT22;3006;50.956;7.002;2023-12-20T02:10:27;6.80;99.60
5960;DHT22;3006;50.956;7.002;2023-12-20T02:12:56;6.70;99.60
5960;DHT22;3006;50.956;7.002;2023-12-20T02:15:24;6.70;99.70
5960;DHT22;3006;50.956;7.002;2023-12-20T02:17:53;6.60;99.50
5960;DHT22;3006;50.956;7.002;2023-12-20T02:20:22;6.50;99.10
5960;DHT22;3006;50.956;7.002;2023-12-20T02:22:51;6.40;99.40
5960;DHT22;3006;50.956;7.002;2023-12-20T02:25:19;6.40;99.30
5960;DHT22;3006;50.956;7.002;2023-12-20T02:30:35;6.30;98.40
5960;DHT22;3006;50.956;7.002;2023-12-20T02:33:04;6.30;98.50
5960;DHT22;3006;50.956;7.002;2023-12-20T02:35:35;6.20;98.50
5960;DHT22;3006;50.956;7.002;2023-12-20T02:38:05;6.10;98.20
5960;DHT22;3006;50.956;7.002;2023-12-20T02:40:33;6.00;98.70
5960;DHT22;3006;50.956;7.002;2023-12-20T02:43:01;6.10;99.20
5960;DHT22;3006;50.956;7.002;2023-12-20T02:45:30;6.20;99.10
5960;DHT22;3006;50.956;7.002;2023-12-20T02:47:58;6.30;99.10
5960;DHT22;3006;50.956;7.002;2023-12-20T02:50:26;6.30;98.80
5960;DHT22;3006;50.956;7.002;2023-12-20T02:52:54;6.30;98.20
5960;DHT22;3006;50.956;7.002;2023-12-20T02:55:24;6.30;98.40
5960;DHT22;3006;50.956;7.002;2023-12-20T02:57:52;6.30;98.50
5960;DHT22;3006;50.956;7.002;2023-12-20T03:00:20;6.30;98.60
5960;DHT22;3006;50.956;7.002;2023-12-20T03:02:48;6.30;98.70
5960;DHT22;3006;50.956;7.002;2023-12-20T03:05:16;6.30;98.50
5960;DHT22;3006;50.956;7.002;2023-12-20T03:07:45;6.30;98.50
5960;DHT22;3006;50.956;7.002;2023-12-20T03:10:14;6.40;98.60
5960;DHT22;3006;50.956;7.002;2023-12-20T03:12:53;6.40;97.80
5960;DHT22;3006;50.956;7.002;2023-12-20T03:15:22;6.40;98.00
5960;DHT22;3006;50.956;7.002;2023-12-20T03:17:50;6.30;97.70
5960;DHT22;3006;50.956;7.002;2023-12-20T03:20:18;6.40;97.40
5960;DHT22;3006;50.956;7.002;2023-12-20T03:22:46;6.30;97.50
5960;DHT22;3006;50.956;7.002;2023-12-20T03:25:14;6.40;97.20
5960;DHT22;3006;50.956;7.002;2023-12-20T03:27:42;6.30;97.20
5960;DHT22;3006;50.956;7.002;2023-12-20T03:30:13;6.30;97.50
5960;DHT22;3006;50.956;7.002;2023-12-20T03:32:41;6.30;97.40
5960;DHT22;3006;50.956;7.002;2023-12-20T03:35:09;6.30;97.30
5960;DHT22;3006;50.956;7.002;2023-12-20T03:37:37;6.30;97.70
5960;DHT22;3006;50.956;7.002;2023-12-20T03:40:06;6.30;97.70
5960;DHT22;3006;50.956;7.002;2023-12-20T03:42:34;6.30;97.50
5960;DHT22;3006;50.956;7.002;2023-12-20T03:45:03;6.30;97.70
5960;DHT22;3006;50.956;7.002;2023-12-20T03:47:32;6.30;97.70
5960;DHT22;3006;50.956;7.002;2023-12-20T03:50:01;6.30;97.70
5960;DHT22;3006;50.956;7.002;2023-12-20T03:52:29;6.40;97.90
5960;DHT22;3006;50.956;7.002;2023-12-20T03:54:57;6.40;97.50
5960;DHT22;3006;50.956;7.002;2023-12-20T03:57:25;6.40;97.30
5960;DHT22;3006;50.956;7.002;2023-12-20T03:59:53;6.40;97.20
5960;DHT22;3006;50.956;7.002;2023-12-20T04:02:21;6.30;97.30
5960;DHT22;3006;50.956;7.002;2023-12-20T04:04:51;6.20;97.90
5960;DHT22;3006;50.956;7.002;2023-12-20T04:07:20;6.30;97.80
5960;DHT22;3006;50.956;7.002;2023-12-20T04:09:48;6.30;97.20
5960;DHT22;3006;50.956;7.002;2023-12-20T04:12:16;6.30;97.20
5960;DHT22;3006;50.956;7.002;2023-12-20T04:14:44;6.30;97.20
5960;DHT22;3006;50.956;7.002;2023-12-20T04:17:13;6.40;96.80
5960;DHT22;3006;50.956;7.002;2023-12-20T04:19:42;6.40;96.50
5960;DHT22;3006;50.956;7.002;2023-12-20T04:22:12;6.40;96.60
5960;DHT22;3006;50.956;7.002;2023-12-20T04:24:40;6.40;96.80
5960;DHT22;3006;50.956;7.002;2023-12-20T04:27:09;6.30;96.60
5960;DHT22;3006;50.956;7.002;2023-12-20T04:29:37;6.30;96.60
5960;DHT22;3006;50.956;7.002;2023-12-20T04:32:05;6.30;97.00
5960;DHT22;3006;50.956;7.002;2023-12-20T04:34:34;6.30;96.80
5960;DHT22;3006;50.956;7.002;2023-12-20T04:37:02;6.30;96.60
5960;DHT22;3006;50.956;7.002;2023-12-20T04:39:31;6.30;96.60
5960;DHT22;3006;50.956;7.002;2023-12-20T04:42:00;6.30;96.60
5960;DHT22;3006;50.956;7.002;2023-12-20T04:44:28;6.30;96.30
5960;DHT22;3006;50.956;7.002;2023-12-20T04:46:56;6.30;96.80
5960;DHT22;3006;50.956;7.002;2023-12-20T04:49:24;6.30;96.50
5960;DHT22;3006;50.956;7.002;2023-12-20T04:51:52;6.30;96.60
5960;DHT22;3006;50.956;7.002;2023-12-20T04:54:21;6.30;96.60
5960;DHT22;3006;50.956;7.002;2023-12-20T04:56:50;6.20;96.70
5960;DHT22;3006;50.956;7.002;2023-12-20T04:59:19;6.20;96.40
5960;DHT22;3006;50.956;7.002;2023-12-20T05:01:48;6.20;96.40
5960;DHT22;3006;50.956;7.002;2023-12-20T05:04:16;6.30;96.40
5960;DHT22;3006;50.956;7.002;2023-12-20T05:06:44;6.30;96.10
5960;DHT22;3006;50.956;7.002;2023-12-20T05:09:12;6.30;95.60
5960;DHT22;3006;50.956;7.002;2023-12-20T05:11:40;6.30;95.20
5960;DHT22;3006;50.956;7.002;2023-12-20T05:14:10;6.20;95.80
5960;DHT22;3006;50.956;7.002;2023-12-20T05:16:38;6.20;95.90
5960;DHT22;3006;50.956;7.002;2023-12-20T05:19:06;6.10;96.20
5960;DHT22;3006;50.956;7.002;2023-12-20T05:21:34;6.10;95.80
5960;DHT22;3006;50.956;7.002;2023-12-20T05:24:03;6.00;96.10
5960;DHT22;3006;50.956;7.002;2023-12-20T05:26:31;6.10;96.10
5960;DHT22;3006;50.956;7.002;2023-12-20T05:28:59;6.00;96.70
5960;DHT22;3006;50.956;7.002;2023-12-20T05:31:28;6.00;96.30
5960;DHT22;3006;50.956;7.002;2023-12-20T05:33:57;6.00;96.20
5960;DHT22;3006;50.956;7.002;2023-12-20T05:36:25;6.10;96.00
5960;DHT22;3006;50.956;7.002;2023-12-20T05:38:53;6.00;96.00
5960;DHT22;3006;50.956;7.002;2023-12-20T05:41:21;6.00;96.20
5960;DHT22;3006;50.956;7.002;2023-12-20T05:43:49;6.00;96.10
5960;DHT22;3006;50.956;7.002;2023-12-20T05:46:18;6.00;96.00
5960;DHT22;3006;50.956;7.002;2023-12-20T05:48:47;5.90;96.10
5960;DHT22;3006;50.956;7.002;2023-12-20T05:51:16;5.90;96.40
5960;DHT22;3006;50.956;7.002;2023-12-20T05:53:44;6.00;96.20
5960;DHT22;3006;50.956;7.002;2023-12-20T05:56:12;6.00;96.10
5960;DHT22;3006;50.956;7.002;2023-12-20T05:58:41;5.90;96.50
5960;DHT22;3006;50.956;7.002;2023-12-20T06:01:10;5.90;96.40
5960;DHT22;3006;50.956;7.002;2023-12-20T06:03:42;6.00;96.20
5960;DHT22;3006;50.956;7.002;2023-12-20T06:06:12;6.00;96.50
5960;DHT22;3006;50.956;7.002;2023-12-20T06:08:43;6.00;96.20
5960;DHT22;3006;50.956;7.002;2023-12-20T06:11:11;6.00;96.40
5960;DHT22;3006;50.956;7.002;2023-12-20T06:13:40;6.00;96.30
5960;DHT22;3006;50.956;7.002;2023-12-20T06:16:08;6.00;96.20
5960;DHT22;3006;50.956;7.002;2023-12-20T06:18:37;6.00;96.50
5960;DHT22;3006;50.956;7.002;2023-12-20T06:21:05;6.00;96.50
5960;DHT22;3006;50.956;7.002;2023-12-20T06:23:35;6.10;96.40
5960;DHT22;3006;50.956;7.002;2023-12-20T06:26:03;6.10;96.20
5960;DHT22;3006;50.956;7.002;2023-12-20T06:28:32;6.10;96.40
5960;DHT22;3006;50.956;7.002;2023-12-20T06:31:00;6.10;96.10
5960;DHT22;3006;50.956;7.002;2023-12-20T06:33:28;6.10;96.30
5960;DHT22;3006;50.956;7.002;2023-12-20T06:35:58;6.10;96.40
5960;DHT22;3006;50.956;7.002;2023-12-20T06:38:26;6.20;96.40
5960;DHT22;3006;50.956;7.002;2023-12-20T06:40:55;6.10;96.40
5960;DHT22;3006;50.956;7.002;2023-12-20T06:43:24;6.20;96.40
5960;DHT22;3006;50.956;7.002;2023-12-20T06:45:57;6.10;96.50
5960;DHT22;3006;50.956;7.002;2023-12-20T06:48:25;6.00;97.20
5960;DHT22;3006;50.956;7.002;2023-12-20T06:50:53;6.10;96.60
5960;DHT22;3006;50.956;7.002;2023-12-20T06:53:21;6.20;96.40
5960;DHT22;3006;50.956;7.002;2023-12-20T06:55:49;6.20;96.50
5960;DHT22;3006;50.956;7.002;2023-12-20T06:58:19;6.20;96.10
5960;DHT22;3006;50.956;7.002;2023-12-20T07:00:47;6.30;96.00
5960;DHT22;3006;50.956;7.002;2023-12-20T07:03:16;6.30;95.80
5960;DHT22;3006;50.956;7.002;2023-12-20T07:05:44;6.30;95.70
5960;DHT22;3006;50.956;7.002;2023-12-20T07:08:13;6.20;95.80
5960;DHT22;3006;50.956;7.002;2023-12-20T07:10:42;6.30;95.90
5960;DHT22;3006;50.956;7.002;2023-12-20T07:13:10;6.30;95.90
5960;DHT22;3006;50.956;7.002;2023-12-20T07:15:41;6.30;95.70
5960;DHT22;3006;50.956;7.002;2023-12-20T07:18:11;6.30;95.40
5960;DHT22;3006;50.956;7.002;2023-12-20T07:20:39;6.20;95.40
5960;DHT22;3006;50.956;7.002;2023-12-20T07:23:07;6.30;95.00
5960;DHT22;3006;50.956;7.002;2023-12-20T07:25:35;6.20;95.20
5960;DHT22;3006;50.956;7.002;2023-12-20T07:28:04;6.30;94.70
5960;DHT22;3006;50.956;7.002;2023-12-20T07:30:33;6.30;94.80
5960;DHT22;3006;50.956;7.002;2023-12-20T07:33:02;6.30;94.20
5960;DHT22;3006;50.956;7.002;2023-12-20T07:35:31;6.30;94.30
5960;DHT22;3006;50.956;7.002;2023-12-20T07:37:59;6.30;94.00
5960;DHT22;3006;50.956;7.002;2023-12-20T07:40:27;6.30;94.10
5960;DHT22;3006;50.956;7.002;2023-12-20T07:42:55;6.30;94.20
5960;DHT22;3006;50.956;7.002;2023-12-20T07:45:25;6.30;93.90
5960;DHT22;3006;50.956;7.002;2023-12-20T07:47:53;6.30;94.10
5960;DHT22;3006;50.956;7.002;2023-12-20T07:50:23;6.30;94.20
5960;DHT22;3006;50.956;7.002;2023-12-20T07:52:51;6.30;94.20
5960;DHT22;3006;50.956;7.002;2023-12-20T07:55:20;6.40;94.20
5960;DHT22;3006;50.956;7.002;2023-12-20T07:57:48;6.40;93.90
5960;DHT22;3006;50.956;7.002;2023-12-20T08:00:20;6.30;93.80
5960;DHT22;3006;50.956;7.002;2023-12-20T08:02:48;6.40;93.70
5960;DHT22;3006;50.956;7.002;2023-12-20T08:05:16;6.40;93.70
5960;DHT22;3006;50.956;7.002;2023-12-20T08:07:46;6.30;93.70
5960;DHT22;3006;50.956;7.002;2023-12-20T08:10:15;6.40;93.60
5960;DHT22;3006;50.956;7.002;2023-12-20T08:12:45;6.40;93.60
5960;DHT22;3006;50.956;7.002;2023-12-20T08:15:13;6.40;93.50
5960;DHT22;3006;50.956;7.002;2023-12-20T08:17:41;6.40;93.60
5960;DHT22;3006;50.956;7.002;2023-12-20T08:20:10;6.40;93.60
5960;DHT22;3006;50.956;7.002;2023-12-20T08:22:47;6.40;93.20
5960;DHT22;3006;50.956;7.002;2023-12-20T08:25:15;6.50;93.20
5960;DHT22;3006;50.956;7.002;2023-12-20T08:27:43;6.40;93.10
5960;DHT22;3006;50.956;7.002;2023-12-20T08:30:12;6.40;93.40
5960;DHT22;3006;50.956;7.002;2023-12-20T08:32:40;6.40;93.40
5960;DHT22;3006;50.956;7.002;2023-12-20T08:35:09;6.40;93.30
5960;DHT22;3006;50.956;7.002;2023-12-20T08:37:40;6.40;93.80
5960;DHT22;3006;50.956;7.002;2023-12-20T08:40:11;6.40;94.40
5960;DHT22;3006;50.956;7.002;2023-12-20T08:42:39;6.40;93.20
5960;DHT22;3006;50.956;7.002;2023-12-20T08:45:08;6.40;93.90
5960;DHT22;3006;50.956;7.002;2023-12-20T08:47:37;6.40;94.30
5960;DHT22;3006;50.956;7.002;2023-12-20T08:50:06;6.50;94.10
5960;DHT22;3006;50.956;7.002;2023-12-20T08:52:34;6.40;93.80
5960;DHT22;3006;50.956;7.002;2023-12-20T08:55:03;6.40;94.20
5960;DHT22;3006;50.956;7.002;2023-12-20T08:57:32;6.50;93.90
5960;DHT22;3006;50.956;7.002;2023-12-20T09:00:01;6.50;93.40
5960;DHT22;3006;50.956;7.002;2023-12-20T09:02:32;6.40;93.30
5960;DHT22;3006;50.956;7.002;2023-12-20T09:05:00;6.30;93.40
5960;DHT22;3006;50.956;7.002;2023-12-20T09:07:28;6.30;93.70
5960;DHT22;3006;50.956;7.002;2023-12-20T09:09:58;6.30;93.40
5960;DHT22;3006;50.956;7.002;2023-12-20T09:12:26;6.30;93.30
5960;DHT22;3006;50.956;7.002;2023-12-20T09:14:56;6.30;93.40
5960;DHT22;3006;50.956;7.002;2023-12-20T09:17:24;6.90;94.90
5960;DHT22;3006;50.956;7.002;2023-12-20T09:19:53;6.90;93.70
5960;DHT22;3006;50.956;7.002;2023-12-20T09:22:22;7.00;91.90
5960;DHT22;3006;50.956;7.002;2023-12-20T09:24:50;7.00;92.10
5960;DHT22;3006;50.956;7.002;2023-12-20T09:27:18;6.90;90.80
5960;DHT22;3006;50.956;7.002;2023-12-20T09:29:47;6.90;91.50
5960;DHT22;3006;50.956;7.002;2023-12-20T09:32:17;7.10;91.00
5960;DHT22;3006;50.956;7.002;2023-12-20T09:34:47;7.00;90.30
5960;DHT22;3006;50.956;7.002;2023-12-20T09:37:16;7.00;90.80
5960;DHT22;3006;50.956;7.002;2023-12-20T09:39:44;7.40;90.50
5960;DHT22;3006;50.956;7.002;2023-12-20T09:42:19;7.40;89.50
5960;DHT22;3006;50.956;7.002;2023-12-20T09:44:49;7.00;90.10
5960;DHT22;3006;50.956;7.002;2023-12-20T09:47:20;6.70;91.60
5960;DHT22;3006;50.956;7.002;2023-12-20T09:49:51;6.70;92.20
5960;DHT22;3006;50.956;7.002;2023-12-20T09:52:20;6.70;92.30
5960;DHT22;3006;50.956;7.002;2023-12-20T09:54:50;6.70;92.20
5960;DHT22;3006;50.956;7.002;2023-12-20T09:57:20;6.60;92.10
5960;DHT22;3006;50.956;7.002;2023-12-20T09:59:51;6.70;92.60
5960;DHT22;3006;50.956;7.002;2023-12-20T10:02:23;6.70;92.20
5960;DHT22;3006;50.956;7.002;2023-12-20T10:04:54;6.70;92.20
5960;DHT22;3006;50.956;7.002;2023-12-20T10:07:22;6.70;92.30
5960;DHT22;3006;50.956;7.002;2023-12-20T10:09:54;6.70;91.90
5960;DHT22;3006;50.956;7.002;2023-12-20T10:12:23;6.70;92.20
5960;DHT22;3006;50.956;7.002;2023-12-20T10:14:54;6.70;92.30
5960;DHT22;3006;50.956;7.002;2023-12-20T10:17:25;6.70;92.20
5960;DHT22;3006;50.956;7.002;2023-12-20T10:19:56;6.60;92.10
5960;DHT22;3006;50.956;7.002;2023-12-20T10:22:25;6.60;92.50
5960;DHT22;3006;50.956;7.002;2023-12-20T10:24:53;6.70;92.40
5960;DHT22;3006;50.956;7.002;2023-12-20T10:27:21;6.60;92.20
5960;DHT22;3006;50.956;7.002;2023-12-20T10:29:49;6.60;92.60
5960;DHT22;3006;50.956;7.002;2023-12-20T10:32:23;6.70;92.60
5960;DHT22;3006;50.956;7.002;2023-12-20T10:34:54;6.70;92.50
5960;DHT22;3006;50.956;7.002;2023-12-20T10:37:23;6.70;91.90
5960;DHT22;3006;50.956;7.002;2023-12-20T10:39:53;6.70;92.10
5960;DHT22;3006;50.956;7.002;2023-12-20T10:42:26;6.70;91.90
5960;DHT22;3006;50.956;7.002;2023-12-20T10:44:54;6.70;92.00
5960;DHT22;3006;50.956;7.002;2023-12-20T10:47:23;6.70;92.10
5960;DHT22;3006;50.956;7.002;2023-12-20T10:49:54;6.70;92.00
5960;DHT22;3006;50.956;7.002;2023-12-20T10:52:23;6.70;92.00
5960;DHT22;3006;50.956;7.002;2023-12-20T10:54:52;6.70;92.20
5960;DHT22;3006;50.956;7.002;2023-12-20T10:57:21;6.70;92.00
5960;DHT22;3006;50.956;7.002;2023-12-20T10:59:53;6.70;91.70
5960;DHT22;3006;50.956;7.002;2023-12-20T11:02:22;6.70;91.60
5960;DHT22;3006;50.956;7.002;2023-12-20T11:04:55;6.70;91.60
5960;DHT22;3006;50.956;7.002;2023-12-20T11:07:29;6.70;91.90
5960;DHT22;3006;50.956;7.002;2023-12-20T11:10:04;6.80;91.50
5960;DHT22;3006;50.956;7.002;2023-12-20T11:12:39;6.70;91.60
5960;DHT22;3006;50.956;7.002;2023-12-20T11:15:11;6.80;91.70
5960;DHT22;3006;50.956;7.002;2023-12-20T11:17:39;6.80;91.80
5960;DHT22;3006;50.956;7.002;2023-12-20T11:20:10;6.80;92.00
5960;DHT22;3006;50.956;7.002;2023-12-20T11:22:40;6.80;91.70
5960;DHT22;3006;50.956;7.002;2023-12-20T11:25:20;6.80;91.70
5960;DHT22;3006;50.956;7.002;2023-12-20T11:28:06;6.80;91.50
5960;DHT22;3006;50.956;7.002;2023-12-20T11:30:42;6.80;91.90
5960;DHT22;3006;50.956;7.002;2023-12-20T11:33:10;6.80;91.50
5960;DHT22;3006;50.956;7.002;2023-12-20T11:35:40;6.80;91.60
5960;DHT22;3006;50.956;7.002;2023-12-20T11:38:08;6.80;91.50
5960;DHT22;3006;50.956;7.002;2023-12-20T11:40:37;6.90;91.80
5960;DHT22;3006;50.956;7.002;2023-12-20T11:43:05;6.90;91.70
5960;DHT22;3006;50.956;7.002;2023-12-20T11:45:34;6.90;91.90
5960;DHT22;3006;50.956;7.002;2023-12-20T11:48:03;6.90;91.80
5960;DHT22;3006;50.956;7.002;2023-12-20T11:50:32;7.00;91.10
5960;DHT22;3006;50.956;7.002;2023-12-20T11:53:01;7.00;91.00
5960;DHT22;3006;50.956;7.002;2023-12-20T11:55:29;7.00;91.10
5960;DHT22;3006;50.956;7.002;2023-12-20T11:57:58;7.00;91.00
5960;DHT22;3006;50.956;7.002;2023-12-20T12:00:26;7.00;91.00
5960;DHT22;3006;50.956;7.002;2023-12-20T12:02:57;7.00;91.00
5960;DHT22;3006;50.956;7.002;2023-12-20T12:05:26;7.00;90.70
5960;DHT22;3006;50.956;7.002;2023-12-20T12:07:55;7.00;91.10
5960;DHT22;3006;50.956;7.002;2023-12-20T12:10:25;6.90;90.90
5960;DHT22;3006;50.956;7.002;2023-12-20T12:12:53;7.00;90.90
5960;DHT22;3006;50.956;7.002;2023-12-20T12:15:22;7.00;90.90
5960;DHT22;3006;50.956;7.002;2023-12-20T12:17:53;7.00;90.80
5960;DHT22;3006;50.956;7.002;2023-12-20T12:20:23;7.00;90.90
5960;DHT22;3006;50.956;7.002;2023-12-20T12:22:58;7.00;90.60
5960;DHT22;3006;50.956;7.002;2023-12-20T12:25:29;7.00;90.80
5960;DHT22;3006;50.956;7.002;2023-12-20T12:27:58;7.00;90.90
5960;DHT22;3006;50.956;7.002;2023-12-20T12:30:26;6.90;91.10
5960;DHT22;3006;50.956;7.002;2023-12-20T12:33:05;6.90;91.10
5960;DHT22;3006;50.956;7.002;2023-12-20T12:35:37;7.00;91.40
5960;DHT22;3006;50.956;7.002;2023-12-20T12:38:07;6.90;91.50
5960;DHT22;3006;50.956;7.002;2023-12-20T12:40:37;6.90;91.30
5960;DHT22;3006;50.956;7.002;2023-12-20T12:43:05;6.90;91.60
5960;DHT22;3006;50.956;7.002;2023-12-20T12:45:34;7.00;91.50
5960;DHT22;3006;50.956;7.002;2023-12-20T12:48:03;7.00;91.40
5960;DHT22;3006;50.956;7.002;2023-12-20T12:50:31;7.00;91.60
5960;DHT22;3006;50.956;7.002;2023-12-20T12:52:59;7.00;91.60
5960;DHT22;3006;50.956;7.002;2023-12-20T12:55:28;7.00;91.60
5960;DHT22;3006;50.956;7.002;2023-12-20T12:57:57;7.00;91.60
5960;DHT22;3006;50.956;7.002;2023-12-20T13:00:26;7.00;91.20
5960;DHT22;3006;50.956;7.002;2023-12-20T13:02:54;7.00;91.40
5960;DHT22;3006;50.956;7.002;2023-12-20T13:05:22;7.00;91.80
5960;DHT22;3006;50.956;7.002;2023-12-20T13:07:50;7.00;92.20
5960;DHT22;3006;50.956;7.002;2023-12-20T13:10:18;7.00;92.40
5960;DHT22;3006;50.956;7.002;2023-12-20T13:12:47;7.00;92.50
5960;DHT22;3006;50.956;7.002;2023-12-20T13:15:16;7.10;92.80
5960;DHT22;3006;50.956;7.002;2023-12-20T13:17:45;7.10;93.00
5960;DHT22;3006;50.956;7.002;2023-12-20T13:20:14;7.00;93.50
5960;DHT22;3006;50.956;7.002;2023-12-20T13:22:42;7.10;93.90
5960;DHT22;3006;50.956;7.002;2023-12-20T13:25:11;7.00;94.30
5960;DHT22;3006;50.956;7.002;2023-12-20T13:27:39;7.10;94.30
5960;DHT22;3006;50.956;7.002;2023-12-20T13:30:07;7.00;94.20
5960;DHT22;3006;50.956;7.002;2023-12-20T13:32:37;7.10;94.20
5960;DHT22;3006;50.956;7.002;2023-12-20T13:35:06;7.10;94.30
5960;DHT22;3006;50.956;7.002;2023-12-20T13:37:34;7.00;94.20
5960;DHT22;3006;50.956;7.002;2023-12-20T13:40:04;7.10;94.30
5960;DHT22;3006;50.956;7.002;2023-12-20T13:42:33;7.10;94.40
5960;DHT22;3006;50.956;7.002;2023-12-20T13:45:01;7.10;94.50
5960;DHT22;3006;50.956;7.002;2023-12-20T13:47:31;7.10;93.90
5960;DHT22;3006;50.956;7.002;2023-12-20T13:50:03;7.10;94.50
5960;DHT22;3006;50.956;7.002;2023-12-20T13:52:32;7.10;94.10
5960;DHT22;3006;50.956;7.002;2023-12-20T13:55:05;7.10;93.90
5960;DHT22;3006;50.956;7.002;2023-12-20T13:57:35;7.10;94.00
5960;DHT22;3006;50.956;7.002;2023-12-20T14:00:21;7.10;93.50
5960;DHT22;3006;50.956;7.002;2023-12-20T14:02:49;7.10;93.30
5960;DHT22;3006;50.956;7.002;2023-12-20T14:05:19;7.20;93.30
5960;DHT22;3006;50.956;7.002;2023-12-20T14:07:51;7.20;93.30
5960;DHT22;3006;50.956;7.002;2023-12-20T14:10:20;7.20;93.30
5960;DHT22;3006;50.956;7.002;2023-12-20T14:12:48;7.20;93.40
5960;DHT22;3006;50.956;7.002;2023-12-20T14:15:16;7.20;93.70
5960;DHT22;3006;50.956;7.002;2023-12-20T14:17:44;7.20;93.30
5960;DHT22;3006;50.956;7.002;2023-12-20T14:20:13;7.20;93.60
5960;DHT22;3006;50.956;7.002;2023-12-20T14:22:43;7.20;93.70
5960;DHT22;3006;50.956;7.002;2023-12-20T14:25:12;7.20;93.60
5960;DHT22;3006;50.956;7.002;2023-12-20T14:27:40;7.20;93.90
5960;DHT22;3006;50.956;7.002;2023-12-20T14:30:12;7.20;93.50
5960;DHT22;3006;50.956;7.002;2023-12-20T14:32:41;7.20;93.30
5960;DHT22;3006;50.956;7.002;2023-12-20T14:35:10;7.20;93.30
5960;DHT22;3006;50.956;7.002;2023-12-20T14:37:38;7.30;93.30
5960;DHT22;3006;50.956;7.002;2023-12-20T14:40:10;7.30;93.20
5960;DHT22;3006;50.956;7.002;2023-12-20T14:42:42;7.30;93.60
5960;DHT22;3006;50.956;7.002;2023-12-20T14:45:11;7.30;93.50
5960;DHT22;3006;50.956;7.002;2023-12-20T14:47:40;7.40;93.60
5960;DHT22;3006;50.956;7.002;2023-12-20T14:50:08;7.40;93.40
5960;DHT22;3006;50.956;7.002;2023-12-20T14:52:37;7.40;93.90
5960;DHT22;3006;50.956;7.002;2023-12-20T14:55:06;7.40;93.80
5960;DHT22;3006;50.956;7.002;2023-12-20T14:57:35;7.30;93.70
5960;DHT22;3006;50.956;7.002;2023-12-20T15:00:05;7.30;93.80
5960;DHT22;3006;50.956;7.002;2023-12-20T15:02:33;7.40;93.70
5960;DHT22;3006;50.956;7.002;2023-12-20T15:05:01;7.40;93.60
5960;DHT22;3006;50.956;7.002;2023-12-20T15:07:29;7.40;93.40
5960;DHT22;3006;50.956;7.002;2023-12-20T15:09:58;7.40;93.60
5960;DHT22;3006;50.956;7.002;2023-12-20T15:12:26;7.40;93.50
5960;DHT22;3006;50.956;7.002;2023-12-20T15:14:55;7.40;93.50
5960;DHT22;3006;50.956;7.002;2023-12-20T15:17:23;7.40;93.30
5960;DHT22;3006;50.956;7.002;2023-12-20T15:19:52;7.40;93.10
5960;DHT22;3006;50.956;7.002;2023-12-20T15:22:21;7.40;93.00
5960;DHT22;3006;50.956;7.002;2023-12-20T15:24:49;7.40;93.00
5960;DHT22;3006;50.956;7.002;2023-12-20T15:27:18;7.40;92.50
5960;DHT22;3006;50.956;7.002;2023-12-20T15:29:50;7.40;92.60
5960;DHT22;3006;50.956;7.002;2023-12-20T15:32:20;7.40;92.60
5960;DHT22;3006;50.956;7.002;2023-12-20T15:34:49;7.40;93.00
5960;DHT22;3006;50.956;7.002;2023-12-20T15:37:19;7.40;93.60
5960;DHT22;3006;50.956;7.002;2023-12-20T15:39:47;7.30;94.20
5960;DHT22;3006;50.956;7.002;2023-12-20T15:42:15;7.30;94.40
5960;DHT22;3006;50.956;7.002;2023-12-20T15:44:43;7.30;94.30
5960;DHT22;3006;50.956;7.002;2023-12-20T15:47:12;7.30;94.50
5960;DHT22;3006;50.956;7.002;2023-12-20T15:49:41;7.40;94.30
5960;DHT22;3006;50.956;7.002;2023-12-20T15:52:10;7.40;94.10
5960;DHT22;3006;50.956;7.002;2023-12-20T15:54:38;7.30;94.00
5960;DHT22;3006;50.956;7.002;2023-12-20T15:57:08;7.40;93.90
5960;DHT22;3006;50.956;7.002;2023-12-20T15:59:37;7.40;93.90
5960;DHT22;3006;50.956;7.002;2023-12-20T16:02:05;7.40;93.90
5960;DHT22;3006;50.956;7.002;2023-12-20T16:04:33;7.30;94.00
5960;DHT22;3006;50.956;7.002;2023-12-20T16:07:03;7.30;94.00
5960;DHT22;3006;50.956;7.002;2023-12-20T16:09:31;7.30;94.00
5960;DHT22;3006;50.956;7.002;2023-12-20T16:11:59;7.30;94.10
5960;DHT22;3006;50.956;7.002;2023-12-20T16:14:27;7.30;94.00
5960;DHT22;3006;50.956;7.002;2023-12-20T16:16:56;7.20;94.10
5960;DHT22;3006;50.956;7.002;2023-12-20T16:19:26;7.30;94.00
5960;DHT22;3006;50.956;7.002;2023-12-20T16:21:54;7.40;93.70
5960;DHT22;3006;50.956;7.002;2023-12-20T16:24:24;7.40;93.90
5960;DHT22;3006;50.956;7.002;2023-12-20T16:26:52;7.30;94.10
5960;DHT22;3006;50.956;7.002;2023-12-20T16:29:20;7.20;94.20
5960;DHT22;3006;50.956;7.002;2023-12-20T16:31:48;7.30;94.20